Time,TemperatureF,DewpointF,PressureIn,WindDirection,WindDirectionDegrees,WindSpeedMPH,WindSpeedGustMPH,Humidity,HourlyPrecipIn,Conditions,Clouds,dailyrainin,SoftwareType,DateUTC
2013-03-03 00:05:00,31.8,25.4,29.42,NW,315,2.7,-999.0,77,-99.99,,,0.00,Acu-Link.com,2013-03-03 05:05:00,
2013-03-03 00:20:00,31.6,25.3,29.42,WNW,292,2.2,-999.0,77,-99.99,,,0.00,Acu-Link.com,2013-03-03 05:20:00,
2013-03-03 00:35:00,31.5,25.1,29.42,WNW,292,2.7,-999.0,77,-99.99,,,0.00,Acu-Link.com,2013-03-03 05:35:00,
2013-03-03 00:51:00,31.3,24.6,29.42,WNW,292,1.6,-999.0,76,-99.99,,,0.00,Acu-Link.com,2013-03-03 05:51:00,
2013-03-03 01:06:00,31.3,24.9,29.42,NNW,337,0.0,-999.0,77,-99.99,,,0.00,Acu-Link.com,2013-03-03 06:06:00,
2013-03-03 01:21:00,31.3,24.9,29.42,NW,315,2.7,-999.0,77,-99.99,,,0.00,Acu-Link.com,2013-03-03 06:21:00,
2013-03-03 01:36:00,31.3,24.9,29.42,NNW,337,2.2,-999.0,77,-99.99,,,0.00,Acu-Link.com,2013-03-03 06:36:00,
2013-03-03 01:51:00,31.1,25.4,29.41,WNW,292,0.0,-999.0,79,-99.99,,,0.00,Acu-Link.com,2013-03-03 06:51:00,
2013-03-03 02:07:00,30.9,25.2,29.41,NW,315,0.0,-999.0,79,-99.99,,,0.00,Acu-Link.com,2013-03-03 07:07:00,
2013-03-03 02:22:00,30.7,25.3,29.41,NNW,337,1.6,-999.0,80,-99.99,,,0.00,Acu-Link.com,2013-03-03 07:22:00,
2013-03-03 02:37:00,30.6,24.8,29.40,WNW,292,2.7,-999.0,79,-99.99,,,0.00,Acu-Link.com,2013-03-03 07:37:00,
2013-03-03 02:52:00,30.4,25.0,29.40,North,0,2.7,-999.0,80,-99.99,,,0.00,Acu-Link.com,2013-03-03 07:52:00,
2013-03-03 03:08:00,30.4,25.0,29.40,North,0,0.0,-999.0,80,-99.99,,,0.00,Acu-Link.com,2013-03-03 08:08:00,
2013-03-03 03:23:00,30.2,24.8,29.40,WNW,292,5.8,-999.0,80,-99.99,,,0.00,Acu-Link.com,2013-03-03 08:23:00,
2013-03-03 03:38:00,30.2,24.8,29.40,West,270,3.1,-999.0,80,-99.99,,,0.00,Acu-Link.com,2013-03-03 08:38:00,
2013-03-03 03:53:00,30.0,24.3,29.40,NW,315,2.7,-999.0,79,-99.99,,,0.00,Acu-Link.com,2013-03-03 08:53:00,
2013-03-03 04:18:00,30.0,24.6,29.39,NW,315,2.7,-999.0,80,-99.99,,,0.00,Acu-Link.com,2013-03-03 09:18:00,
2013-03-03 04:34:00,29.8,24.1,29.40,NNW,337,3.1,-999.0,79,-99.99,,,0.00,Acu-Link.com,2013-03-03 09:34:00,
2013-03-03 04:49:00,29.7,24.0,29.40,NNE,22,3.1,-999.0,79,-99.99,,,0.00,Acu-Link.com,2013-03-03 09:49:00,
2013-03-03 05:04:00,29.7,24.0,29.40,NE,45,0.0,-999.0,79,-99.99,,,0.00,Acu-Link.com,2013-03-03 10:04:00,
2013-03-03 05:19:00,29.5,23.8,29.40,WNW,292,2.2,-999.0,79,-99.99,,,0.00,Acu-Link.com,2013-03-03 10:19:00,
2013-03-03 05:34:00,29.5,23.5,29.40,NW,315,3.1,-999.0,78,-99.99,,,0.00,Acu-Link.com,2013-03-03 10:34:00,
2013-03-03 05:49:00,29.3,23.3,29.40,WNW,292,2.2,-999.0,78,-99.99,,,0.00,Acu-Link.com,2013-03-03 10:49:00,
2013-03-03 06:05:00,29.3,23.6,29.40,NNW,337,2.2,-999.0,79,-99.99,,,0.00,Acu-Link.com,2013-03-03 11:05:00,
2013-03-03 06:20:00,29.1,23.4,29.40,WNW,292,1.1,-999.0,79,-99.99,,,0.00,Acu-Link.com,2013-03-03 11:20:00,
2013-03-03 06:35:00,29.1,23.4,29.40,NW,315,3.1,-999.0,79,-99.99,,,0.00,Acu-Link.com,2013-03-03 11:35:00,
2013-03-03 06:50:00,29.1,23.7,29.41,North,0,0.0,-999.0,80,-99.99,,,0.00,Acu-Link.com,2013-03-03 11:50:00,
2013-03-03 07:06:00,29.3,24.2,29.41,West,270,2.2,-999.0,81,-99.99,,,0.00,Acu-Link.com,2013-03-03 12:06:00,
2013-03-03 07:21:00,29.5,24.4,29.41,NNW,337,2.7,-999.0,81,-99.99,,,0.00,Acu-Link.com,2013-03-03 12:21:00,
2013-03-03 07:36:00,30.2,24.8,29.41,ESE,112,2.2,-999.0,80,-99.99,,,0.00,Acu-Link.com,2013-03-03 12:36:00,
2013-03-03 07:51:00,30.4,25.0,29.41,West,270,3.8,-999.0,80,-99.99,,,0.00,Acu-Link.com,2013-03-03 12:51:00,
2013-03-03 08:06:00,30.7,25.6,29.41,ESE,112,2.2,-999.0,81,-99.99,,,0.00,Acu-Link.com,2013-03-03 13:06:00,
2013-03-03 08:22:00,31.3,26.1,29.42,NNW,337,3.1,-999.0,81,-99.99,,,0.00,Acu-Link.com,2013-03-03 13:22:00,
2013-03-03 08:37:00,33.3,26.8,29.41,SW,225,2.2,-999.0,77,-99.99,,,0.00,Acu-Link.com,2013-03-03 13:37:00,
2013-03-03 08:52:00,34.0,26.9,29.41,ENE,67,0.0,-999.0,75,-99.99,,,0.00,Acu-Link.com,2013-03-03 13:52:00,
2013-03-03 09:07:00,32.5,26.1,29.41,NNW,337,2.2,-999.0,77,-99.99,,,0.00,Acu-Link.com,2013-03-03 14:07:00,
2013-03-03 09:22:00,33.3,26.5,29.41,West,270,2.2,-999.0,76,-99.99,,,0.00,Acu-Link.com,2013-03-03 14:22:00,
2013-03-03 09:38:00,33.6,26.6,29.40,NW,315,2.2,-999.0,75,-99.99,,,0.00,Acu-Link.com,2013-03-03 14:38:00,
2013-03-03 09:53:00,33.4,27.0,29.40,NNW,337,4.3,-999.0,77,-99.99,,,0.00,Acu-Link.com,2013-03-03 14:53:00,
2013-03-03 10:08:00,32.5,27.7,29.40,NNW,337,2.7,-999.0,82,-99.99,,,0.00,Acu-Link.com,2013-03-03 15:08:00,
2013-03-03 10:23:00,32.9,28.0,29.39,NW,315,1.6,-999.0,82,-99.99,,,0.00,Acu-Link.com,2013-03-03 15:23:00,
2013-03-03 10:39:00,33.4,27.9,29.39,West,270,3.1,-999.0,80,-99.99,,,0.00,Acu-Link.com,2013-03-03 15:39:00,
2013-03-03 10:54:00,34.3,28.2,29.39,West,270,1.6,-999.0,78,-99.99,,,0.00,Acu-Link.com,2013-03-03 15:54:00,
2013-03-03 11:09:00,35.4,28.3,29.39,NNE,22,3.1,-999.0,75,-99.99,,,0.00,Acu-Link.com,2013-03-03 16:09:00,
2013-03-03 11:24:00,36.3,28.8,29.38,West,270,2.7,-999.0,74,-99.99,,,0.00,Acu-Link.com,2013-03-03 16:24:00,
2013-03-03 11:39:00,36.3,28.5,29.38,NW,315,2.2,-999.0,73,-99.99,,,0.00,Acu-Link.com,2013-03-03 16:39:00,
2013-03-03 11:55:00,36.5,28.7,29.38,NW,315,2.2,-999.0,73,-99.99,,,0.00,Acu-Link.com,2013-03-03 16:55:00,
2013-03-03 12:10:00,37.0,29.2,29.37,West,270,2.2,-999.0,73,-99.99,,,0.00,Acu-Link.com,2013-03-03 17:10:00,
2013-03-03 12:25:00,36.7,28.5,29.37,WSW,247,1.1,-999.0,72,-99.99,,,0.00,Acu-Link.com,2013-03-03 17:25:00,
2013-03-03 12:40:00,37.2,29.0,29.36,SW,225,3.8,-999.0,72,-99.99,,,0.00,Acu-Link.com,2013-03-03 17:40:00,
2013-03-03 12:56:00,37.8,29.2,29.36,WNW,292,6.7,-999.0,71,-99.99,,,0.00,Acu-Link.com,2013-03-03 17:56:00,
2013-03-03 13:11:00,38.1,28.9,29.35,West,270,4.7,-999.0,69,-99.99,,,0.00,Acu-Link.com,2013-03-03 18:11:00,
2013-03-03 13:26:00,37.9,28.7,29.35,SSE,157,1.6,-999.0,69,-99.99,,,0.00,Acu-Link.com,2013-03-03 18:26:00,
2013-03-03 13:41:00,37.8,28.5,29.35,NW,315,4.3,-999.0,69,-99.99,,,0.00,Acu-Link.com,2013-03-03 18:41:00,
2013-03-03 13:56:00,38.1,29.2,29.35,West,270,2.7,-999.0,70,-99.99,,,0.00,Acu-Link.com,2013-03-03 18:56:00,
2013-03-03 14:12:00,38.1,29.9,29.35,NNW,337,3.1,-999.0,72,-99.99,,,0.00,Acu-Link.com,2013-03-03 19:12:00,
2013-03-03 14:27:00,38.1,29.6,29.35,East,90,1.1,-999.0,71,-99.99,,,0.00,Acu-Link.com,2013-03-03 19:27:00,
2013-03-03 14:42:00,38.3,30.1,29.35,WNW,292,4.3,-999.0,72,-99.99,,,0.00,Acu-Link.com,2013-03-03 19:42:00,
2013-03-03 14:57:00,37.8,29.9,29.35,NW,315,3.1,-999.0,73,-99.99,,,0.00,Acu-Link.com,2013-03-03 19:57:00,
2013-03-03 15:13:00,38.3,29.7,29.35,East,90,2.7,-999.0,71,-99.99,,,0.00,Acu-Link.com,2013-03-03 20:13:00,
2013-03-03 15:28:00,37.8,29.6,64.49,WNW,292,3.8,-999.0,72,-99.99,,,0.00,Acu-Link.com,2013-03-03 20:28:00,
2013-03-03 15:43:00,37.4,29.6,29.35,SW,225,2.7,-999.0,73,-99.99,,,0.00,Acu-Link.com,2013-03-03 20:43:00,
2013-03-03 15:58:00,37.2,29.7,29.35,NW,315,3.1,-999.0,74,-99.99,,,0.00,Acu-Link.com,2013-03-03 20:58:00,
2013-03-03 16:13:00,37.0,29.5,29.35,WSW,247,2.7,-999.0,74,-99.99,,,0.00,Acu-Link.com,2013-03-03 21:13:00,
2013-03-03 16:29:00,36.5,29.0,29.35,NW,315,3.1,-999.0,74,-99.99,,,0.00,Acu-Link.com,2013-03-03 21:29:00,
2013-03-03 16:44:00,35.4,28.3,29.35,NW,315,3.8,-999.0,75,-99.99,,,0.00,Acu-Link.com,2013-03-03 21:44:00,
2013-03-03 16:59:00,35.1,28.3,29.36,NW,315,2.7,-999.0,76,-99.99,,,0.00,Acu-Link.com,2013-03-03 21:59:00,
2013-03-03 17:14:00,34.3,28.8,29.36,NNW,337,1.6,-999.0,80,-99.99,,,0.00,Acu-Link.com,2013-03-03 22:14:00,
2013-03-03 17:29:00,33.3,29.8,29.36,NW,315,3.1,-999.0,87,-99.99,,,0.00,Acu-Link.com,2013-03-03 22:29:00,
2013-03-03 17:45:00,32.5,29.9,29.36,WNW,292,2.7,-999.0,90,-99.99,,,0.00,Acu-Link.com,2013-03-03 22:45:00,
2013-03-03 18:00:00,32.4,30.0,29.37,NNW,337,5.8,-999.0,91,-99.99,,,0.00,Acu-Link.com,2013-03-03 23:00:00,
2013-03-03 18:15:00,32.2,30.1,29.37,NNW,337,2.2,-999.0,92,-99.99,,,0.00,Acu-Link.com,2013-03-03 23:15:00,
2013-03-03 18:30:00,31.8,30.0,29.38,WNW,292,2.2,-999.0,93,-99.99,,,0.00,Acu-Link.com,2013-03-03 23:30:00,
2013-03-03 18:45:00,31.5,29.9,29.38,South,180,1.6,-999.0,94,-99.99,,,0.00,Acu-Link.com,2013-03-03 23:45:00,
2013-03-03 19:01:00,31.5,29.1,29.38,West,270,2.7,-999.0,91,-99.99,,,0.00,Acu-Link.com,2013-03-04 00:01:00,
2013-03-03 19:16:00,31.5,28.9,29.38,West,270,2.7,-999.0,90,-99.99,,,0.00,Acu-Link.com,2013-03-04 00:16:00,
2013-03-03 19:31:00,31.8,27.8,29.38,NW,315,3.1,-999.0,85,-99.99,,,0.00,Acu-Link.com,2013-03-04 00:31:00,
2013-03-03 19:46:00,31.8,27.5,29.38,NW,315,2.2,-999.0,84,-99.99,,,0.00,Acu-Link.com,2013-03-04 00:46:00,
2013-03-03 20:01:00,31.8,27.0,29.38,NW,315,3.8,-999.0,82,-99.99,,,0.00,Acu-Link.com,2013-03-04 01:01:00,
2013-03-03 20:17:00,31.8,27.0,29.39,WNW,292,3.8,-999.0,82,-99.99,,,0.00,Acu-Link.com,2013-03-04 01:17:00,
2013-03-03 20:32:00,32.0,26.8,29.39,North,0,4.3,-999.0,81,-99.99,,,0.00,Acu-Link.com,2013-03-04 01:32:00,
2013-03-03 20:47:00,31.8,27.0,29.39,NW,315,3.1,-999.0,82,-99.99,,,0.00,Acu-Link.com,2013-03-04 01:47:00,
2013-03-03 21:02:00,31.6,26.8,29.39,NW,315,2.7,-999.0,82,-99.99,,,0.00,Acu-Link.com,2013-03-04 02:02:00,
2013-03-03 21:17:00,31.5,26.6,29.39,WNW,292,2.7,-999.0,82,-99.99,,,0.00,Acu-Link.com,2013-03-04 02:17:00,
2013-03-03 21:33:00,31.5,26.6,29.39,WNW,292,2.7,-999.0,82,-99.99,,,0.00,Acu-Link.com,2013-03-04 02:33:00,
2013-03-03 21:48:00,31.5,26.3,29.39,NW,315,3.1,-999.0,81,-99.99,,,0.00,Acu-Link.com,2013-03-04 02:48:00,
2013-03-03 22:03:00,31.5,26.0,29.39,WNW,292,2.2,-999.0,80,-99.99,,,0.00,Acu-Link.com,2013-03-04 03:03:00,
2013-03-03 22:18:00,31.3,25.8,29.39,SSE,157,6.3,-999.0,80,-99.99,,,0.00,Acu-Link.com,2013-03-04 03:18:00,
2013-03-03 22:34:00,31.1,25.7,29.39,North,0,4.7,-999.0,80,-99.99,,,0.00,Acu-Link.com,2013-03-04 03:34:00,
2013-03-03 22:49:00,31.1,25.7,29.39,NNW,337,4.7,-999.0,80,-99.99,,,0.00,Acu-Link.com,2013-03-04 03:49:00,
2013-03-03 23:04:00,31.1,25.4,29.39,NNE,22,3.8,-999.0,79,-99.99,,,0.00,Acu-Link.com,2013-03-04 04:04:00,
2013-03-03 23:19:00,31.1,25.4,29.39,WNW,292,3.8,-999.0,79,-99.99,,,0.00,Acu-Link.com,2013-03-04 04:19:00,
2013-03-03 23:34:00,31.1,25.7,29.39,NNW,337,3.8,-999.0,80,-99.99,,,0.00,Acu-Link.com,2013-03-04 04:34:00,
2013-03-03 23:50:00,30.9,25.5,29.39,NW,315,3.1,-999.0,80,-99.99,,,0.00,Acu-Link.com,2013-03-04 04:50:00,